KEPH/EPH METAR and TAF weather

Enter ICAO airport designator
Station Type Date Time Source
KEPH METAR 2019/10/15 19:44 UTC NOAA

KEPH 151944Z AUTO 00000KT 2 1/2SM HZ CLR 13/02 A3005 RMK AO2 VIS 1/2V5 T01280017


Station Type Date Time Source
KEPH Decoded METAR 2019/10/15 19:44 UTC NOAA

EPHRATA MUNICIPAL AIRPORT, WA, United States (KEPH) 47-18N 119-31W 383M
Oct 15, 2019 - 03:44 PM EDT / 2019.10.15 1944 UTC
Wind: Calm:0
Visibility: 2 1/2 mile(s):0
Sky conditions: clear
Weather: haze
Temperature: 55.0 F (12.8 C)
Dew Point: 35.1 F (1.7 C)
Relative Humidity: 46%
Pressure (altimeter): 30.05 in. Hg (1017 hPa)
ob: KEPH 151944Z AUTO 00000KT 2 1/2SM HZ CLR 13/02 A3005 RMK AO2 VIS 1/2V5 T01280017
cycle: 19

Station Type Date Time Source
KEPH TAF UTC NOAA

Error!

Example: see airport list